Time,TemperatureF,DewpointF,PressureIn,WindDirection,WindDirectionDegrees,WindSpeedMPH,WindSpeedGustMPH,Humidity,HourlyPrecipIn,Conditions,Clouds,dailyrainin,SoftwareType,DateUTC
2013-12-12 00:03:00,22.1,20.1,30.17,WSW,246,0.0,0.0,92,0.00,,,0.00,WUHU216DAVISWMX,2013-12-12 05:03:00,
2013-12-12 00:08:00,22.1,20.1,30.17,WSW,246,0.0,0.0,92,0.00,,,0.00,WUHU216DAVISWMX,2013-12-12 05:08:00,
2013-12-12 00:13:00,22.0,20.2,30.17,WSW,246,0.0,0.0,93,0.00,,,0.00,WUHU216DAVISWMX,2013-12-12 05:13:00,
2013-12-12 00:18:00,22.0,20.2,30.17,WSW,247,0.0,0.0,93,0.00,,,0.00,WUHU216DAVISWMX,2013-12-12 05:18:00,
2013-12-12 00:23:00,21.9,20.1,30.17,SW,231,0.0,0.0,93,0.00,,,0.00,WUHU216DAVISWMX,2013-12-12 05:23:00,
2013-12-12 00:28:00,21.9,20.1,30.17,West,280,0.0,0.0,93,0.00,,,0.00,WUHU216DAVISWMX,2013-12-12 05:28:00,
2013-12-12 00:33:00,21.9,20.1,30.17,WNW,294,0.0,0.0,93,0.00,,,0.00,WUHU216DAVISWMX,2013-12-12 05:33:00,
2013-12-12 00:38:00,22.0,20.2,30.17,WNW,294,0.0,0.0,93,0.00,,,0.00,WUHU216DAVISWMX,2013-12-12 05:38:00,
2013-12-12 00:43:00,22.0,20.2,30.17,WSW,258,0.0,0.0,93,0.00,,,0.00,WUHU216DAVISWMX,2013-12-12 05:43:00,
2013-12-12 00:48:00,22.2,20.4,30.17,NNW,336,0.0,0.0,93,0.00,,,0.00,WUHU216DAVISWMX,2013-12-12 05:48:00,
2013-12-12 00:53:00,22.3,20.5,30.18,WSW,253,0.0,1.0,93,0.00,,,0.00,WUHU216DAVISWMX,2013-12-12 05:53:00,
2013-12-12 00:58:00,22.3,20.5,30.18,WSW,253,0.0,1.0,93,0.00,,,0.00,WUHU216DAVISWMX,2013-12-12 05:58:00,
2013-12-12 01:03:00,22.3,20.5,30.18,WSW,253,0.0,0.0,93,0.00,,,0.00,WUHU216DAVISWMX,2013-12-12 06:03:00,
2013-12-12 01:08:00,22.4,20.6,30.18,WNW,283,0.0,0.0,93,0.00,,,0.00,WUHU216DAVISWMX,2013-12-12 06:08:00,
2013-12-12 01:13:00,22.4,20.6,30.18,WNW,300,0.0,0.0,93,0.00,,,0.00,WUHU216DAVISWMX,2013-12-12 06:13:00,
2013-12-12 01:18:00,22.3,20.5,30.18,NW,304,0.0,0.0,93,0.00,,,0.00,WUHU216DAVISWMX,2013-12-12 06:18:00,
2013-12-12 01:23:00,22.2,20.4,30.19,NNE,30,0.0,0.0,93,0.00,,,0.00,WUHU216DAVISWMX,2013-12-12 06:23:00,
2013-12-12 01:28:00,22.2,20.4,30.19,NNW,328,0.0,0.0,93,0.00,,,0.00,WUHU216DAVISWMX,2013-12-12 06:28:00,
2013-12-12 01:33:00,22.2,20.7,30.19,NNW,342,0.0,0.0,94,0.00,,,0.00,WUHU216DAVISWMX,2013-12-12 06:33:00,
2013-12-12 01:38:00,22.1,20.6,30.20,North,9,0.0,0.0,94,0.00,,,0.00,WUHU216DAVISWMX,2013-12-12 06:38:00,
2013-12-12 01:43:00,22.1,20.6,30.20,North,9,0.0,0.0,94,0.00,,,0.00,WUHU216DAVISWMX,2013-12-12 06:43:00,
2013-12-12 01:48:00,22.0,20.7,30.20,North,9,0.0,0.0,95,0.00,,,0.00,WUHU216DAVISWMX,2013-12-12 06:48:00,
2013-12-12 01:53:00,22.2,20.9,30.21,North,9,0.0,0.0,95,0.00,,,0.00,WUHU216DAVISWMX,2013-12-12 06:53:00,
2013-12-12 01:58:00,22.3,21.0,30.20,North,9,0.0,0.0,95,0.00,,,0.00,WUHU216DAVISWMX,2013-12-12 06:58:00,
2013-12-12 02:03:00,22.3,21.0,30.21,North,9,0.0,0.0,95,0.00,,,0.00,WUHU216DAVISWMX,2013-12-12 07:03:00,
2013-12-12 02:08:00,22.2,20.9,30.21,NW,315,0.0,0.0,95,0.00,,,0.00,WUHU216DAVISWMX,2013-12-12 07:08:00,
2013-12-12 02:13:00,22.2,20.9,30.21,NW,315,0.0,0.0,95,0.00,,,0.00,WUHU216DAVISWMX,2013-12-12 07:13:00,
2013-12-12 02:18:00,22.2,20.9,30.21,NW,315,0.0,0.0,95,0.00,,,0.00,WUHU216DAVISWMX,2013-12-12 07:18:00,
2013-12-12 02:23:00,22.2,20.9,30.21,NW,315,0.0,0.0,95,0.00,,,0.00,WUHU216DAVISWMX,2013-12-12 07:23:00,
2013-12-12 02:28:00,22.2,20.7,30.21,NW,315,0.0,0.0,94,0.00,,,0.00,WUHU216DAVISWMX,2013-12-12 07:28:00,
2013-12-12 02:33:00,22.2,20.9,30.21,NW,315,0.0,0.0,95,0.00,,,0.00,WUHU216DAVISWMX,2013-12-12 07:33:00,
2013-12-12 02:38:00,22.1,20.8,30.22,NW,315,0.0,0.0,95,0.00,,,0.00,WUHU216DAVISWMX,2013-12-12 07:38:00,
2013-12-12 02:43:00,22.0,20.5,30.22,NW,315,0.0,0.0,94,0.00,,,0.00,WUHU216DAVISWMX,2013-12-12 07:43:00,
2013-12-12 02:48:00,21.8,20.3,30.22,NW,315,0.0,0.0,94,0.00,,,0.00,WUHU216DAVISWMX,2013-12-12 07:48:00,
2013-12-12 02:53:00,21.6,20.1,30.22,NW,315,0.0,0.0,94,0.00,,,0.00,WUHU216DAVISWMX,2013-12-12 07:53:00,
2013-12-12 02:58:00,21.3,19.8,30.22,NW,315,0.0,0.0,94,0.00,,,0.00,WUHU216DAVISWMX,2013-12-12 07:58:00,
2013-12-12 03:03:00,21.2,19.7,30.22,NW,315,0.0,0.0,94,0.00,,,0.00,WUHU216DAVISWMX,2013-12-12 08:03:00,
2013-12-12 03:08:00,21.0,19.5,30.22,NW,315,0.0,0.0,94,0.00,,,0.00,WUHU216DAVISWMX,2013-12-12 08:08:00,
2013-12-12 03:13:00,20.7,19.2,30.22,NW,315,0.0,0.0,94,0.00,,,0.00,WUHU216DAVISWMX,2013-12-12 08:13:00,
2013-12-12 03:23:00,20.3,18.8,30.22,NW,315,0.0,0.0,94,0.00,,,0.00,WUHU216DAVISWMX,2013-12-12 08:23:00,
2013-12-12 03:33:00,19.9,18.4,30.22,NW,315,0.0,0.0,94,0.00,,,0.00,WUHU216DAVISWMX,2013-12-12 08:33:00,
2013-12-12 03:38:00,19.8,18.3,30.22,NW,315,0.0,0.0,94,0.00,,,0.00,WUHU216DAVISWMX,2013-12-12 08:38:00,
2013-12-12 03:43:00,19.6,18.1,30.22,NW,315,0.0,0.0,94,0.00,,,0.00,WUHU216DAVISWMX,2013-12-12 08:43:00,
2013-12-12 03:48:00,19.5,18.0,30.22,NW,315,0.0,0.0,94,0.00,,,0.00,WUHU216DAVISWMX,2013-12-12 08:48:00,
2013-12-12 03:53:00,19.3,17.8,30.22,NW,315,0.0,0.0,94,0.00,,,0.00,WUHU216DAVISWMX,2013-12-12 08:53:00,
2013-12-12 03:58:00,19.1,17.6,30.22,NW,315,0.0,0.0,94,0.00,,,0.00,WUHU216DAVISWMX,2013-12-12 08:58:00,
2013-12-12 04:03:00,18.8,17.1,30.22,NW,315,0.0,0.0,93,0.00,,,0.00,WUHU216DAVISWMX,2013-12-12 09:03:00,
2013-12-12 04:08:00,18.6,16.9,30.22,NW,315,0.0,0.0,93,0.00,,,0.00,WUHU216DAVISWMX,2013-12-12 09:08:00,
2013-12-12 04:13:00,18.4,16.7,30.22,NW,315,0.0,0.0,93,0.00,,,0.00,WUHU216DAVISWMX,2013-12-12 09:13:00,
2013-12-12 04:18:00,18.3,16.6,30.23,NW,315,0.0,0.0,93,0.00,,,0.00,WUHU216DAVISWMX,2013-12-12 09:18:00,
2013-12-12 04:23:00,18.1,16.4,30.23,NW,315,0.0,0.0,93,0.00,,,0.00,WUHU216DAVISWMX,2013-12-12 09:23:00,
2013-12-12 04:28:00,17.7,16.0,30.23,NW,315,0.0,0.0,93,0.00,,,0.00,WUHU216DAVISWMX,2013-12-12 09:28:00,
2013-12-12 04:33:00,17.4,15.7,30.23,NW,315,0.0,0.0,93,0.00,,,0.00,WUHU216DAVISWMX,2013-12-12 09:33:00,
2013-12-12 04:38:00,17.2,15.5,30.23,NW,315,0.0,0.0,93,0.00,,,0.00,WUHU216DAVISWMX,2013-12-12 09:38:00,
2013-12-12 04:43:00,17.0,15.3,30.23,NW,315,0.0,0.0,93,0.00,,,0.00,WUHU216DAVISWMX,2013-12-12 09:43:00,
2013-12-12 04:48:00,16.9,15.2,30.23,NW,315,0.0,0.0,93,0.00,,,0.00,WUHU216DAVISWMX,2013-12-12 09:48:00,
2013-12-12 04:53:00,16.9,15.2,30.23,NW,315,0.0,0.0,93,0.00,,,0.00,WUHU216DAVISWMX,2013-12-12 09:53:00,
2013-12-12 04:58:00,16.8,15.1,30.24,NW,315,0.0,0.0,93,0.00,,,0.00,WUHU216DAVISWMX,2013-12-12 09:58:00,
2013-12-12 05:03:00,16.5,14.5,30.24,NW,315,0.0,0.0,92,0.00,,,0.00,WUHU216DAVISWMX,2013-12-12 10:03:00,
2013-12-12 05:08:00,16.3,14.6,30.24,NW,315,0.0,0.0,93,0.00,,,0.00,WUHU216DAVISWMX,2013-12-12 10:08:00,
2013-12-12 05:13:00,16.1,14.1,30.24,NW,315,0.0,0.0,92,0.00,,,0.00,WUHU216DAVISWMX,2013-12-12 10:13:00,
2013-12-12 05:18:00,15.8,13.8,30.24,NW,315,0.0,0.0,92,0.00,,,0.00,WUHU216DAVISWMX,2013-12-12 10:18:00,
2013-12-12 05:23:00,15.9,13.9,30.24,NW,315,0.0,0.0,92,0.00,,,0.00,WUHU216DAVISWMX,2013-12-12 10:23:00,
2013-12-12 05:28:00,15.8,14.1,30.25,NW,315,0.0,0.0,93,0.00,,,0.00,WUHU216DAVISWMX,2013-12-12 10:28:00,
2013-12-12 05:33:00,15.7,13.7,30.25,NW,315,0.0,0.0,92,0.00,,,0.00,WUHU216DAVISWMX,2013-12-12 10:33:00,
2013-12-12 05:38:00,15.2,13.2,30.25,NW,315,0.0,0.0,92,0.00,,,0.00,WUHU216DAVISWMX,2013-12-12 10:38:00,
2013-12-12 05:43:00,15.0,12.8,30.26,NW,315,0.0,0.0,91,0.00,,,0.00,WUHU216DAVISWMX,2013-12-12 10:43:00,
2013-12-12 05:48:00,14.7,12.5,30.26,NW,315,0.0,0.0,91,0.00,,,0.00,WUHU216DAVISWMX,2013-12-12 10:48:00,
2013-12-12 05:53:00,14.5,12.3,30.26,NW,315,0.0,0.0,91,0.00,,,0.00,WUHU216DAVISWMX,2013-12-12 10:53:00,
2013-12-12 05:58:00,14.4,12.2,30.26,NW,315,0.0,0.0,91,0.00,,,0.00,WUHU216DAVISWMX,2013-12-12 10:58:00,
2013-12-12 06:03:00,14.3,12.1,30.27,NW,315,0.0,0.0,91,0.00,,,0.00,WUHU216DAVISWMX,2013-12-12 11:03:00,
2013-12-12 06:08:00,14.2,12.0,30.27,NW,315,0.0,0.0,91,0.00,,,0.00,WUHU216DAVISWMX,2013-12-12 11:08:00,
2013-12-12 06:13:00,14.0,11.8,30.27,NW,315,0.0,0.0,91,0.00,,,0.00,WUHU216DAVISWMX,2013-12-12 11:13:00,
2013-12-12 06:18:00,13.7,11.5,30.27,NW,315,0.0,0.0,91,0.00,,,0.00,WUHU216DAVISWMX,2013-12-12 11:18:00,
2013-12-12 06:23:00,13.6,11.4,30.27,NW,315,0.0,0.0,91,0.00,,,0.00,WUHU216DAVISWMX,2013-12-12 11:23:00,
2013-12-12 06:28:00,13.5,11.3,30.27,NW,315,0.0,0.0,91,0.00,,,0.00,WUHU216DAVISWMX,2013-12-12 11:28:00,
2013-12-12 06:33:00,13.3,10.9,30.27,NW,315,0.0,0.0,90,0.00,,,0.00,WUHU216DAVISWMX,2013-12-12 11:33:00,
2013-12-12 06:38:00,13.2,10.8,30.28,NW,315,0.0,0.0,90,0.00,,,0.00,WUHU216DAVISWMX,2013-12-12 11:38:00,
2013-12-12 06:43:00,12.8,10.4,30.28,NW,315,0.0,0.0,90,0.00,,,0.00,WUHU216DAVISWMX,2013-12-12 11:43:00,
2013-12-12 06:48:00,12.7,10.3,30.28,NW,315,0.0,0.0,90,0.00,,,0.00,WUHU216DAVISWMX,2013-12-12 11:48:00,
2013-12-12 06:53:00,12.5,10.1,30.28,NW,315,0.0,0.0,90,0.00,,,0.00,WUHU216DAVISWMX,2013-12-12 11:53:00,
2013-12-12 06:58:00,12.3,9.9,30.28,NW,315,0.0,0.0,90,0.00,,,0.00,WUHU216DAVISWMX,2013-12-12 11:58:00,
2013-12-12 07:03:00,12.2,9.8,30.28,NW,315,0.0,0.0,90,0.00,,,0.00,WUHU216DAVISWMX,2013-12-12 12:03:00,
2013-12-12 07:08:00,12.2,9.8,30.28,NW,315,0.0,0.0,90,0.00,,,0.00,WUHU216DAVISWMX,2013-12-12 12:08:00,
2013-12-12 07:13:00,12.1,9.7,30.28,NW,315,0.0,0.0,90,0.00,,,0.00,WUHU216DAVISWMX,2013-12-12 12:13:00,
2013-12-12 07:18:00,11.9,9.5,30.29,NW,315,0.0,0.0,90,0.00,,,0.00,WUHU216DAVISWMX,2013-12-12 12:18:00,
2013-12-12 07:23:00,11.8,9.4,30.29,NW,315,0.0,0.0,90,0.00,,,0.00,WUHU216DAVISWMX,2013-12-12 12:23:00,
2013-12-12 07:28:00,11.7,9.3,30.29,NW,315,0.0,0.0,90,0.00,,,0.00,WUHU216DAVISWMX,2013-12-12 12:28:00,
2013-12-12 07:33:00,11.7,9.3,30.29,NW,315,0.0,0.0,90,0.00,,,0.00,WUHU216DAVISWMX,2013-12-12 12:33:00,
2013-12-12 07:38:00,11.7,9.3,30.29,NW,315,0.0,0.0,90,0.00,,,0.00,WUHU216DAVISWMX,2013-12-12 12:38:00,
2013-12-12 07:43:00,11.7,9.3,30.29,NW,315,0.0,0.0,90,0.00,,,0.00,WUHU216DAVISWMX,2013-12-12 12:43:00,
2013-12-12 07:48:00,11.8,9.6,30.29,NW,315,0.0,0.0,91,0.00,,,0.00,WUHU216DAVISWMX,2013-12-12 12:48:00,
2013-12-12 07:53:00,11.7,9.5,30.29,NW,315,0.0,0.0,91,0.00,,,0.00,WUHU216DAVISWMX,2013-12-12 12:53:00,
2013-12-12 07:58:00,11.8,9.6,30.29,NW,315,0.0,0.0,91,0.00,,,0.00,WUHU216DAVISWMX,2013-12-12 12:58:00,
2013-12-12 08:03:00,12.1,9.9,30.30,NW,315,0.0,0.0,91,0.00,,,0.00,WUHU216DAVISWMX,2013-12-12 13:03:00,
2013-12-12 08:08:00,12.5,10.6,30.30,NW,315,0.0,0.0,92,0.00,,,0.00,WUHU216DAVISWMX,2013-12-12 13:08:00,
2013-12-12 08:14:00,12.8,10.9,30.30,NW,315,0.0,0.0,92,0.00,,,0.00,WUHU216DAVISWMX,2013-12-12 13:14:00,
2013-12-12 08:19:00,13.0,11.1,30.29,NW,315,0.0,0.0,92,0.00,,,0.00,WUHU216DAVISWMX,2013-12-12 13:19:00,
2013-12-12 08:24:00,13.2,11.3,30.29,NW,315,0.0,0.0,92,0.00,,,0.00,WUHU216DAVISWMX,2013-12-12 13:24:00,
2013-12-12 08:29:00,13.4,11.7,30.29,NW,315,0.0,0.0,93,0.00,,,0.00,WUHU216DAVISWMX,2013-12-12 13:29:00,
2013-12-12 08:34:00,13.8,12.1,30.29,West,264,0.0,0.0,93,0.00,,,0.00,WUHU216DAVISWMX,2013-12-12 13:34:00,
2013-12-12 08:39:00,14.9,13.2,30.29,West,263,0.0,0.0,93,0.00,,,0.00,WUHU216DAVISWMX,2013-12-12 13:39:00,
2013-12-12 08:44:00,15.7,13.7,30.29,WNW,301,0.0,0.0,92,0.00,,,0.00,WUHU216DAVISWMX,2013-12-12 13:44:00,
2013-12-12 08:49:00,16.4,13.9,30.30,WNW,299,0.0,0.0,90,0.00,,,0.00,WUHU216DAVISWMX,2013-12-12 13:49:00,
2013-12-12 08:54:00,16.9,13.9,30.30,WNW,301,0.0,0.0,88,0.00,,,0.00,WUHU216DAVISWMX,2013-12-12 13:54:00,
2013-12-12 08:59:00,17.5,14.0,30.30,WNW,289,0.0,3.0,86,0.00,,,0.00,WUHU216DAVISWMX,2013-12-12 13:59:00,
2013-12-12 09:04:00,17.9,13.6,30.30,NW,318,0.0,5.0,83,0.00,,,0.00,WUHU216DAVISWMX,2013-12-12 14:04:00,
2013-12-12 09:09:00,18.2,13.3,30.29,NW,304,0.0,5.0,81,0.00,,,0.00,WUHU216DAVISWMX,2013-12-12 14:09:00,
2013-12-12 09:14:00,18.4,13.3,30.29,NW,322,0.0,2.0,80,0.00,,,0.00,WUHU216DAVISWMX,2013-12-12 14:14:00,
2013-12-12 09:19:00,18.7,13.3,30.30,WNW,299,0.0,7.0,79,0.00,,,0.00,WUHU216DAVISWMX,2013-12-12 14:19:00,
2013-12-12 09:24:00,18.8,13.1,30.29,NW,305,0.0,7.0,78,0.00,,,0.00,WUHU216DAVISWMX,2013-12-12 14:24:00,
2013-12-12 09:29:00,19.0,13.0,30.30,West,260,0.0,5.0,77,0.00,,,0.00,WUHU216DAVISWMX,2013-12-12 14:29:00,
2013-12-12 09:34:00,19.2,12.9,30.30,WNW,283,0.0,2.0,76,0.00,,,0.00,WUHU216DAVISWMX,2013-12-12 14:34:00,
2013-12-12 09:39:00,19.3,12.4,30.30,NNW,340,0.0,4.0,74,0.00,,,0.00,WUHU216DAVISWMX,2013-12-12 14:39:00,
2013-12-12 09:44:00,19.4,12.2,30.30,NW,312,0.0,4.0,73,0.00,,,0.00,WUHU216DAVISWMX,2013-12-12 14:44:00,
2013-12-12 09:49:00,19.5,11.4,30.30,NW,317,0.0,3.0,70,0.00,,,0.00,WUHU216DAVISWMX,2013-12-12 14:49:00,
2013-12-12 09:54:00,19.7,11.9,30.30,NW,326,0.0,3.0,71,0.00,,,0.00,WUHU216DAVISWMX,2013-12-12 14:54:00,
2013-12-12 09:59:00,19.8,11.3,30.30,WNW,301,0.0,3.0,69,0.00,,,0.00,WUHU216DAVISWMX,2013-12-12 14:59:00,
2013-12-12 10:04:00,19.9,11.1,30.30,NW,313,0.0,7.0,68,0.00,,,0.00,WUHU216DAVISWMX,2013-12-12 15:04:00,
2013-12-12 10:09:00,20.1,11.3,30.30,NNW,335,0.0,7.0,68,0.00,,,0.00,WUHU216DAVISWMX,2013-12-12 15:09:00,
2013-12-12 10:14:00,20.3,11.1,30.30,WSW,246,7.0,8.0,67,0.00,,,0.00,WUHU216DAVISWMX,2013-12-12 15:14:00,
2013-12-12 10:19:00,20.4,11.2,30.30,WNW,302,0.0,9.0,67,0.00,,,0.00,WUHU216DAVISWMX,2013-12-12 15:19:00,
2013-12-12 10:24:00,20.5,11.0,30.29,NW,312,5.0,9.0,66,0.00,,,0.00,WUHU216DAVISWMX,2013-12-12 15:24:00,
2013-12-12 10:29:00,20.6,10.7,30.29,West,267,0.0,5.0,65,0.00,,,0.00,WUHU216DAVISWMX,2013-12-12 15:29:00,
2013-12-12 10:34:00,20.6,10.4,30.29,NW,322,1.0,8.0,64,0.00,,,0.00,WUHU216DAVISWMX,2013-12-12 15:34:00,
2013-12-12 10:39:00,20.7,10.1,30.29,NW,318,2.0,13.0,63,0.00,,,0.00,WUHU216DAVISWMX,2013-12-12 15:39:00,
2013-12-12 10:44:00,20.7,10.1,30.29,NW,308,0.0,13.0,63,0.00,,,0.00,WUHU216DAVISWMX,2013-12-12 15:44:00,
2013-12-12 10:49:00,20.8,10.6,30.29,West,262,0.0,9.0,64,0.00,,,0.00,WUHU216DAVISWMX,2013-12-12 15:49:00,
2013-12-12 10:54:00,21.0,10.4,30.28,WNW,303,0.0,3.0,63,0.00,,,0.00,WUHU216DAVISWMX,2013-12-12 15:54:00,
2013-12-12 10:59:00,21.1,10.9,30.28,West,273,0.0,4.0,64,0.00,,,0.00,WUHU216DAVISWMX,2013-12-12 15:59:00,
2013-12-12 11:04:00,21.3,10.7,30.28,West,278,1.0,4.0,63,0.00,,,0.00,WUHU216DAVISWMX,2013-12-12 16:04:00,
2013-12-12 11:09:00,21.4,10.8,30.28,NW,311,1.0,2.0,63,0.00,,,0.00,WUHU216DAVISWMX,2013-12-12 16:09:00,
2013-12-12 11:14:00,21.4,10.8,30.28,NW,321,0.0,3.0,63,0.00,,,0.00,WUHU216DAVISWMX,2013-12-12 16:14:00,
2013-12-12 11:19:00,21.5,10.9,30.27,North,358,0.0,4.0,63,0.00,,,0.00,WUHU216DAVISWMX,2013-12-12 16:19:00,
2013-12-12 11:24:00,21.4,10.8,30.27,NW,316,0.0,4.0,63,0.00,,,0.00,WUHU216DAVISWMX,2013-12-12 16:24:00,
2013-12-12 11:29:00,21.7,11.1,30.27,NNW,331,0.0,2.0,63,0.00,,,0.00,WUHU216DAVISWMX,2013-12-12 16:29:00,
2013-12-12 11:34:00,21.7,11.1,30.26,NW,309,0.0,6.0,63,0.00,,,0.00,WUHU216DAVISWMX,2013-12-12 16:34:00,
2013-12-12 11:39:00,21.7,11.1,30.27,WNW,303,0.0,6.0,63,0.00,,,0.00,WUHU216DAVISWMX,2013-12-12 16:39:00,
2013-12-12 11:44:00,21.8,10.8,30.26,NNE,30,0.0,1.0,62,0.00,,,0.00,WUHU216DAVISWMX,2013-12-12 16:44:00,
2013-12-12 11:49:00,21.9,10.5,30.26,NW,326,6.0,6.0,61,0.00,,,0.00,WUHU216DAVISWMX,2013-12-12 16:49:00,
2013-12-12 11:54:00,22.0,10.3,30.26,NNW,331,5.0,6.0,60,0.00,,,0.00,WUHU216DAVISWMX,2013-12-12 16:54:00,
2013-12-12 11:59:00,22.2,10.5,30.26,WNW,302,0.0,6.0,60,0.00,,,0.00,WUHU216DAVISWMX,2013-12-12 16:59:00,
2013-12-12 12:04:00,22.3,10.9,30.26,NW,323,3.0,5.0,61,0.00,,,0.00,WUHU216DAVISWMX,2013-12-12 17:04:00,
2013-12-12 12:09:00,22.4,11.0,30.25,SW,222,0.0,5.0,61,0.00,,,0.00,WUHU216DAVISWMX,2013-12-12 17:09:00,
2013-12-12 12:14:00,22.5,10.7,30.25,NNW,329,0.0,3.0,60,0.00,,,0.00,WUHU216DAVISWMX,2013-12-12 17:14:00,
2013-12-12 12:19:00,22.7,10.9,30.25,NW,305,0.0,3.0,60,0.00,,,0.00,WUHU216DAVISWMX,2013-12-12 17:19:00,
2013-12-12 12:24:00,22.8,11.0,30.25,NW,323,0.0,5.0,60,0.00,,,0.00,WUHU216DAVISWMX,2013-12-12 17:24:00,
2013-12-12 12:29:00,23.0,10.8,30.24,NW,313,1.0,8.0,59,0.00,,,0.00,WUHU216DAVISWMX,2013-12-12 17:29:00,
2013-12-12 12:34:00,23.0,10.4,30.24,North,349,0.0,8.0,58,0.00,,,0.00,WUHU216DAVISWMX,2013-12-12 17:34:00,
2013-12-12 12:39:00,23.1,10.5,30.24,NW,322,0.0,6.0,58,0.00,,,0.00,WUHU216DAVISWMX,2013-12-12 17:39:00,
2013-12-12 12:44:00,23.1,10.1,30.24,North,4,0.0,5.0,57,0.00,,,0.00,WUHU216DAVISWMX,2013-12-12 17:44:00,
2013-12-12 12:49:00,23.1,10.9,30.23,NW,319,0.0,5.0,59,0.00,,,0.00,WUHU216DAVISWMX,2013-12-12 17:49:00,
2013-12-12 12:54:00,23.2,11.0,30.23,WNW,301,0.0,4.0,59,0.00,,,0.00,WUHU216DAVISWMX,2013-12-12 17:54:00,
2013-12-12 12:59:00,23.3,11.1,30.23,WNW,298,0.0,4.0,59,0.00,,,0.00,WUHU216DAVISWMX,2013-12-12 17:59:00,
2013-12-12 13:04:00,23.3,9.9,30.23,WNW,293,2.0,5.0,56,0.00,,,0.00,WUHU216DAVISWMX,2013-12-12 18:04:00,
2013-12-12 13:09:00,23.3,10.7,30.23,NW,318,0.0,5.0,58,0.00,,,0.00,WUHU216DAVISWMX,2013-12-12 18:09:00,
2013-12-12 13:14:00,23.4,10.4,30.23,NW,325,0.0,4.0,57,0.00,,,0.00,WUHU216DAVISWMX,2013-12-12 18:14:00,
2013-12-12 13:19:00,23.5,10.5,30.23,NNW,340,0.0,4.0,57,0.00,,,0.00,WUHU216DAVISWMX,2013-12-12 18:19:00,
2013-12-12 13:24:00,23.4,10.4,30.23,NW,317,0.0,4.0,57,0.00,,,0.00,WUHU216DAVISWMX,2013-12-12 18:24:00,
2013-12-12 13:29:00,23.4,10.0,30.23,WNW,303,0.0,3.0,56,0.00,,,0.00,WUHU216DAVISWMX,2013-12-12 18:29:00,
2013-12-12 13:34:00,23.4,9.6,30.23,NW,320,0.0,6.0,55,0.00,,,0.00,WUHU216DAVISWMX,2013-12-12 18:34:00,
2013-12-12 13:39:00,23.3,9.5,30.23,NW,323,2.0,6.0,55,0.00,,,0.00,WUHU216DAVISWMX,2013-12-12 18:39:00,
2013-12-12 13:44:00,23.2,9.8,30.23,NW,326,0.0,4.0,56,0.00,,,0.00,WUHU216DAVISWMX,2013-12-12 18:44:00,
2013-12-12 13:49:00,23.1,9.7,30.23,NW,325,0.0,4.0,56,0.00,,,0.00,WUHU216DAVISWMX,2013-12-12 18:49:00,
2013-12-12 13:54:00,23.1,9.3,30.23,NNW,331,0.0,2.0,55,0.00,,,0.00,WUHU216DAVISWMX,2013-12-12 18:54:00,
2013-12-12 13:59:00,23.2,10.2,30.23,NW,325,0.0,2.0,57,0.00,,,0.00,WUHU216DAVISWMX,2013-12-12 18:59:00,
2013-12-12 14:04:00,23.2,9.4,30.23,NW,319,0.0,3.0,55,0.00,,,0.00,WUHU216DAVISWMX,2013-12-12 19:04:00,
2013-12-12 14:09:00,23.1,9.7,30.23,WNW,302,0.0,4.0,56,0.00,,,0.00,WUHU216DAVISWMX,2013-12-12 19:09:00,
2013-12-12 14:14:00,23.2,9.4,30.23,NW,319,0.0,4.0,55,0.00,,,0.00,WUHU216DAVISWMX,2013-12-12 19:14:00,
2013-12-12 14:19:00,23.2,9.8,30.23,NW,320,0.0,3.0,56,0.00,,,0.00,WUHU216DAVISWMX,2013-12-12 19:19:00,
2013-12-12 14:24:00,23.2,10.2,30.23,West,266,0.0,2.0,57,0.00,,,0.00,WUHU216DAVISWMX,2013-12-12 19:24:00,
2013-12-12 14:29:00,23.1,9.3,30.23,West,281,0.0,2.0,55,0.00,,,0.00,WUHU216DAVISWMX,2013-12-12 19:29:00,
2013-12-12 14:34:00,23.1,9.3,30.23,NW,315,0.0,5.0,55,0.00,,,0.00,WUHU216DAVISWMX,2013-12-12 19:34:00,
2013-12-12 14:39:00,23.1,9.3,30.23,NW,319,2.0,5.0,55,0.00,,,0.00,WUHU216DAVISWMX,2013-12-12 19:39:00,
2013-12-12 14:44:00,23.0,8.8,30.23,NW,315,0.0,4.0,54,0.00,,,0.00,WUHU216DAVISWMX,2013-12-12 19:44:00,
2013-12-12 14:49:00,22.9,9.1,30.23,NW,318,0.0,4.0,55,0.00,,,0.00,WUHU216DAVISWMX,2013-12-12 19:49:00,
2013-12-12 14:54:00,22.9,8.7,30.23,NNW,328,0.0,2.0,54,0.00,,,0.00,WUHU216DAVISWMX,2013-12-12 19:54:00,
2013-12-12 14:59:00,22.9,8.7,30.23,NW,314,0.0,2.0,54,0.00,,,0.00,WUHU216DAVISWMX,2013-12-12 19:59:00,
2013-12-12 15:04:00,22.8,8.6,30.23,NW,325,0.0,2.0,54,0.00,,,0.00,WUHU216DAVISWMX,2013-12-12 20:04:00,
2013-12-12 15:09:00,22.8,9.4,30.23,NW,323,0.0,2.0,56,0.00,,,0.00,WUHU216DAVISWMX,2013-12-12 20:09:00,
2013-12-12 15:14:00,22.7,8.5,30.23,North,349,0.0,1.0,54,0.00,,,0.00,WUHU216DAVISWMX,2013-12-12 20:14:00,
2013-12-12 15:19:00,22.5,9.2,30.23,NNW,343,0.0,0.0,56,0.00,,,0.00,WUHU216DAVISWMX,2013-12-12 20:19:00,
2013-12-12 15:24:00,22.6,10.1,30.23,NNW,343,0.0,0.0,58,0.00,,,0.00,WUHU216DAVISWMX,2013-12-12 20:24:00,
2013-12-12 15:29:00,22.5,10.0,30.23,NNW,343,0.0,0.0,58,0.00,,,0.00,WUHU216DAVISWMX,2013-12-12 20:29:00,
2013-12-12 15:34:00,22.4,9.1,30.23,NNW,329,0.0,0.0,56,0.00,,,0.00,WUHU216DAVISWMX,2013-12-12 20:34:00,
2013-12-12 15:39:00,22.2,8.5,30.23,NW,322,0.0,0.0,55,0.00,,,0.00,WUHU216DAVISWMX,2013-12-12 20:39:00,
2013-12-12 15:44:00,22.1,8.8,30.23,NW,322,0.0,0.0,56,0.00,,,0.00,WUHU216DAVISWMX,2013-12-12 20:44:00,
2013-12-12 15:49:00,22.0,9.1,30.23,NW,322,0.0,0.0,57,0.00,,,0.00,WUHU216DAVISWMX,2013-12-12 20:49:00,
2013-12-12 15:54:00,21.9,9.8,30.23,NW,322,0.0,0.0,59,0.00,,,0.00,WUHU216DAVISWMX,2013-12-12 20:54:00,
2013-12-12 15:59:00,21.7,10.0,30.22,NW,322,0.0,0.0,60,0.00,,,0.00,WUHU216DAVISWMX,2013-12-12 20:59:00,
2013-12-12 16:04:00,21.5,10.2,30.22,NW,322,0.0,0.0,61,0.00,,,0.00,WUHU216DAVISWMX,2013-12-12 21:04:00,
2013-12-12 16:09:00,21.3,10.7,30.22,NW,322,0.0,0.0,63,0.00,,,0.00,WUHU216DAVISWMX,2013-12-12 21:09:00,
2013-12-12 16:14:00,21.1,10.2,30.22,NW,322,0.0,0.0,62,0.00,,,0.00,WUHU216DAVISWMX,2013-12-12 21:14:00,
2013-12-12 16:19:00,20.8,9.9,30.22,NW,322,0.0,0.0,62,0.00,,,0.00,WUHU216DAVISWMX,2013-12-12 21:19:00,
2013-12-12 16:24:00,20.7,10.1,30.22,NW,322,0.0,0.0,63,0.00,,,0.00,WUHU216DAVISWMX,2013-12-12 21:24:00,
2013-12-12 16:29:00,20.5,10.3,30.22,NW,322,0.0,0.0,64,0.00,,,0.00,WUHU216DAVISWMX,2013-12-12 21:29:00,
2013-12-12 16:34:00,20.4,10.2,30.22,NW,322,0.0,0.0,64,0.00,,,0.00,WUHU216DAVISWMX,2013-12-12 21:34:00,
2013-12-12 16:39:00,20.1,10.3,30.22,NW,322,0.0,0.0,65,0.00,,,0.00,WUHU216DAVISWMX,2013-12-12 21:39:00,
2013-12-12 16:44:00,19.8,10.0,30.22,NW,322,0.0,0.0,65,0.00,,,0.00,WUHU216DAVISWMX,2013-12-12 21:44:00,
2013-12-12 16:49:00,19.6,10.1,30.22,NW,322,0.0,0.0,66,0.00,,,0.00,WUHU216DAVISWMX,2013-12-12 21:49:00,
2013-12-12 16:54:00,19.3,9.8,30.23,NW,322,0.0,0.0,66,0.00,,,0.00,WUHU216DAVISWMX,2013-12-12 21:54:00,
2013-12-12 16:59:00,19.3,10.2,30.23,NW,322,0.0,0.0,67,0.00,,,0.00,WUHU216DAVISWMX,2013-12-12 21:59:00,
2013-12-12 17:04:00,19.1,10.0,30.22,NW,322,0.0,0.0,67,0.00,,,0.00,WUHU216DAVISWMX,2013-12-12 22:04:00,
2013-12-12 17:09:00,18.9,9.8,30.22,NW,322,0.0,0.0,67,0.00,,,0.00,WUHU216DAVISWMX,2013-12-12 22:09:00,
2013-12-12 17:14:00,18.9,9.8,30.22,NW,322,0.0,0.0,67,0.00,,,0.00,WUHU216DAVISWMX,2013-12-12 22:14:00,
2013-12-12 17:19:00,18.7,9.6,30.23,NW,322,0.0,0.0,67,0.00,,,0.00,WUHU216DAVISWMX,2013-12-12 22:19:00,
2013-12-12 17:24:00,18.7,9.6,30.23,NW,322,0.0,0.0,67,0.00,,,0.00,WUHU216DAVISWMX,2013-12-12 22:24:00,
2013-12-12 17:29:00,18.5,9.4,30.23,NW,322,0.0,0.0,67,0.00,,,0.00,WUHU216DAVISWMX,2013-12-12 22:29:00,
2013-12-12 17:34:00,18.3,9.6,30.23,NW,322,0.0,0.0,68,0.00,,,0.00,WUHU216DAVISWMX,2013-12-12 22:34:00,
2013-12-12 17:39:00,18.1,9.4,30.23,NW,322,0.0,0.0,68,0.00,,,0.00,WUHU216DAVISWMX,2013-12-12 22:39:00,
2013-12-12 17:44:00,18.0,9.3,30.23,NW,322,0.0,0.0,68,0.00,,,0.00,WUHU216DAVISWMX,2013-12-12 22:44:00,
2013-12-12 17:49:00,18.0,9.6,30.23,NW,322,0.0,0.0,69,0.00,,,0.00,WUHU216DAVISWMX,2013-12-12 22:49:00,
2013-12-12 17:54:00,18.0,9.6,30.23,NW,322,0.0,0.0,69,0.00,,,0.00,WUHU216DAVISWMX,2013-12-12 22:54:00,
2013-12-12 17:59:00,17.9,9.5,30.23,NW,322,0.0,0.0,69,0.00,,,0.00,WUHU216DAVISWMX,2013-12-12 22:59:00,
2013-12-12 18:04:00,17.7,9.3,30.23,NW,322,0.0,0.0,69,0.00,,,0.00,WUHU216DAVISWMX,2013-12-12 23:04:00,
2013-12-12 18:09:00,17.6,9.5,30.23,NW,322,0.0,0.0,70,0.00,,,0.00,WUHU216DAVISWMX,2013-12-12 23:09:00,
2013-12-12 18:14:00,17.4,9.3,30.23,NW,322,0.0,0.0,70,0.00,,,0.00,WUHU216DAVISWMX,2013-12-12 23:14:00,
2013-12-12 18:19:00,17.2,9.5,30.23,NW,322,0.0,0.0,71,0.00,,,0.00,WUHU216DAVISWMX,2013-12-12 23:19:00,
2013-12-12 18:24:00,16.9,9.2,30.23,NW,322,0.0,0.0,71,0.00,,,0.00,WUHU216DAVISWMX,2013-12-12 23:24:00,
2013-12-12 18:29:00,16.8,9.4,30.23,NW,322,0.0,0.0,72,0.00,,,0.00,WUHU216DAVISWMX,2013-12-12 23:29:00,
2013-12-12 18:34:00,16.6,9.5,30.23,NW,322,0.0,0.0,73,0.00,,,0.00,WUHU216DAVISWMX,2013-12-12 23:34:00,
2013-12-12 18:39:00,16.4,9.6,30.23,NW,322,0.0,0.0,74,0.00,,,0.00,WUHU216DAVISWMX,2013-12-12 23:39:00,
2013-12-12 18:44:00,16.3,9.5,30.23,NW,322,0.0,0.0,74,0.00,,,0.00,WUHU216DAVISWMX,2013-12-12 23:44:00,
2013-12-12 18:49:00,16.0,9.2,30.23,NW,322,0.0,0.0,74,0.00,,,0.00,WUHU216DAVISWMX,2013-12-12 23:49:00,
2013-12-12 18:54:00,15.8,9.3,30.22,NW,322,0.0,0.0,75,0.00,,,0.00,WUHU216DAVISWMX,2013-12-12 23:54:00,
2013-12-12 18:59:00,15.6,9.1,30.23,NW,322,0.0,0.0,75,0.00,,,0.00,WUHU216DAVISWMX,2013-12-12 23:59:00,
2013-12-12 19:04:00,15.5,9.0,30.23,NW,322,0.0,0.0,75,0.00,,,0.00,WUHU216DAVISWMX,2013-12-13 00:04:00,
2013-12-12 19:09:00,15.3,9.1,30.22,NW,322,0.0,0.0,76,0.00,,,0.00,WUHU216DAVISWMX,2013-12-13 00:09:00,
2013-12-12 19:14:00,15.3,9.1,30.22,NW,322,0.0,0.0,76,0.00,,,0.00,WUHU216DAVISWMX,2013-12-13 00:14:00,
2013-12-12 19:19:00,15.2,9.0,30.22,NW,322,0.0,0.0,76,0.00,,,0.00,WUHU216DAVISWMX,2013-12-13 00:19:00,
2013-12-12 19:24:00,14.9,8.7,30.22,NW,322,0.0,0.0,76,0.00,,,0.00,WUHU216DAVISWMX,2013-12-13 00:24:00,
2013-12-12 19:29:00,14.8,8.9,30.22,NW,322,0.0,0.0,77,0.00,,,0.00,WUHU216DAVISWMX,2013-12-13 00:29:00,
2013-12-12 19:34:00,14.6,8.7,30.22,NW,322,0.0,0.0,77,0.00,,,0.00,WUHU216DAVISWMX,2013-12-13 00:34:00,
2013-12-12 19:39:00,14.6,8.7,30.22,NW,322,0.0,0.0,77,0.00,,,0.00,WUHU216DAVISWMX,2013-12-13 00:39:00,
2013-12-12 19:44:00,14.4,8.8,30.22,NW,322,0.0,0.0,78,0.00,,,0.00,WUHU216DAVISWMX,2013-12-13 00:44:00,
2013-12-12 19:49:00,14.3,8.4,30.21,NW,322,0.0,0.0,77,0.00,,,0.00,WUHU216DAVISWMX,2013-12-13 00:49:00,
2013-12-12 19:54:00,14.3,8.7,30.21,NW,322,0.0,0.0,78,0.00,,,0.00,WUHU216DAVISWMX,2013-12-13 00:54:00,
2013-12-12 19:59:00,14.3,8.7,30.21,NW,322,0.0,0.0,78,0.00,,,0.00,WUHU216DAVISWMX,2013-12-13 00:59:00,
2013-12-12 20:05:00,14.4,9.1,30.21,NW,322,0.0,0.0,79,0.00,,,0.00,WUHU216DAVISWMX,2013-12-13 01:05:00,
2013-12-12 20:10:00,14.4,9.1,30.20,NW,322,0.0,0.0,79,0.00,,,0.00,WUHU216DAVISWMX,2013-12-13 01:10:00,
2013-12-12 20:15:00,14.5,9.2,30.20,NW,322,0.0,0.0,79,0.00,,,0.00,WUHU216DAVISWMX,2013-12-13 01:15:00,
2013-12-12 20:20:00,14.4,9.1,30.20,NW,322,0.0,0.0,79,0.00,,,0.00,WUHU216DAVISWMX,2013-12-13 01:20:00,
2013-12-12 20:25:00,14.4,9.1,30.20,NW,322,0.0,0.0,79,0.00,,,0.00,WUHU216DAVISWMX,2013-12-13 01:25:00,
2013-12-12 20:30:00,14.3,9.0,30.20,NW,322,0.0,0.0,79,0.00,,,0.00,WUHU216DAVISWMX,2013-12-13 01:30:00,
2013-12-12 20:35:00,14.3,9.0,30.20,NW,322,0.0,0.0,79,0.00,,,0.00,WUHU216DAVISWMX,2013-12-13 01:35:00,
2013-12-12 20:40:00,14.2,9.2,30.19,NW,322,0.0,0.0,80,0.00,,,0.00,WUHU216DAVISWMX,2013-12-13 01:40:00,
2013-12-12 20:45:00,14.1,9.1,30.19,NW,322,0.0,0.0,80,0.00,,,0.00,WUHU216DAVISWMX,2013-12-13 01:45:00,
2013-12-12 20:50:00,14.0,9.0,30.19,NW,322,0.0,0.0,80,0.00,,,0.00,WUHU216DAVISWMX,2013-12-13 01:50:00,
2013-12-12 20:55:00,14.0,9.0,30.18,NW,322,0.0,0.0,80,0.00,,,0.00,WUHU216DAVISWMX,2013-12-13 01:55:00,
2013-12-12 21:00:00,13.9,8.9,30.18,NW,322,0.0,0.0,80,0.00,,,0.00,WUHU216DAVISWMX,2013-12-13 02:00:00,
2013-12-12 21:05:00,13.8,8.8,30.17,NW,322,0.0,0.0,80,0.00,,,0.00,WUHU216DAVISWMX,2013-12-13 02:05:00,
2013-12-12 21:10:00,13.7,8.7,30.17,NW,322,0.0,0.0,80,0.00,,,0.00,WUHU216DAVISWMX,2013-12-13 02:10:00,
2013-12-12 21:15:00,13.4,8.4,30.17,NW,322,0.0,0.0,80,0.00,,,0.00,WUHU216DAVISWMX,2013-12-13 02:15:00,
2013-12-12 21:20:00,13.0,7.7,30.17,NW,322,0.0,0.0,79,0.00,,,0.00,WUHU216DAVISWMX,2013-12-13 02:20:00,
2013-12-12 21:25:00,12.9,7.9,30.16,NW,322,0.0,0.0,80,0.00,,,0.00,WUHU216DAVISWMX,2013-12-13 02:25:00,
2013-12-12 21:30:00,12.6,7.6,30.16,NW,322,0.0,0.0,80,0.00,,,0.00,WUHU216DAVISWMX,2013-12-13 02:30:00,
2013-12-12 21:35:00,12.4,7.4,30.16,NW,322,0.0,0.0,80,0.00,,,0.00,WUHU216DAVISWMX,2013-12-13 02:35:00,
2013-12-12 21:40:00,12.2,7.2,30.16,NW,322,0.0,0.0,80,0.00,,,0.00,WUHU216DAVISWMX,2013-12-13 02:40:00,
2013-12-12 21:45:00,12.0,7.0,30.16,NW,322,0.0,0.0,80,0.00,,,0.00,WUHU216DAVISWMX,2013-12-13 02:45:00,
2013-12-12 21:50:00,11.7,6.7,30.15,NW,322,0.0,0.0,80,0.00,,,0.00,WUHU216DAVISWMX,2013-12-13 02:50:00,
2013-12-12 21:55:00,11.6,6.6,30.15,NW,322,0.0,0.0,80,0.00,,,0.00,WUHU216DAVISWMX,2013-12-13 02:55:00,
2013-12-12 22:00:00,11.4,6.7,30.15,NW,322,0.0,0.0,81,0.00,,,0.00,WUHU216DAVISWMX,2013-12-13 03:00:00,
2013-12-12 22:05:00,11.3,6.3,30.14,NW,322,0.0,0.0,80,0.00,,,0.00,WUHU216DAVISWMX,2013-12-13 03:05:00,
2013-12-12 22:10:00,11.2,6.5,30.14,NW,322,0.0,0.0,81,0.00,,,0.00,WUHU216DAVISWMX,2013-12-13 03:10:00,
2013-12-12 22:15:00,11.0,6.0,30.14,NW,322,0.0,0.0,80,0.00,,,0.00,WUHU216DAVISWMX,2013-12-13 03:15:00,
2013-12-12 22:20:00,10.8,5.8,30.14,NW,322,0.0,0.0,80,0.00,,,0.00,WUHU216DAVISWMX,2013-12-13 03:20:00,
2013-12-12 22:25:00,10.6,5.6,30.13,NW,322,0.0,0.0,80,0.00,,,0.00,WUHU216DAVISWMX,2013-12-13 03:25:00,
2013-12-12 22:30:00,10.5,5.8,30.13,NW,322,0.0,0.0,81,0.00,,,0.00,WUHU216DAVISWMX,2013-12-13 03:30:00,
2013-12-12 22:35:00,10.4,5.7,30.13,NW,322,0.0,0.0,81,0.00,,,0.00,WUHU216DAVISWMX,2013-12-13 03:35:00,
2013-12-12 22:40:00,10.3,5.9,30.12,NW,322,0.0,0.0,82,0.00,,,0.00,WUHU216DAVISWMX,2013-12-13 03:40:00,
2013-12-12 22:45:00,10.3,5.6,30.12,NW,322,0.0,0.0,81,0.00,,,0.00,WUHU216DAVISWMX,2013-12-13 03:45:00,
2013-12-12 22:50:00,10.2,5.8,30.12,NW,322,0.0,0.0,82,0.00,,,0.00,WUHU216DAVISWMX,2013-12-13 03:50:00,
2013-12-12 22:55:00,10.1,5.4,30.12,NW,322,0.0,0.0,81,0.00,,,0.00,WUHU216DAVISWMX,2013-12-13 03:55:00,
2013-12-12 23:00:00,10.0,5.6,30.11,NW,322,0.0,0.0,82,0.00,,,0.00,WUHU216DAVISWMX,2013-12-13 04:00:00,
2013-12-12 23:05:00,9.8,5.1,30.11,NW,322,0.0,0.0,81,0.00,,,0.00,WUHU216DAVISWMX,2013-12-13 04:05:00,
2013-12-12 23:10:00,9.7,5.0,30.11,NW,322,0.0,0.0,81,0.00,,,0.00,WUHU216DAVISWMX,2013-12-13 04:10:00,
2013-12-12 23:15:00,9.6,4.9,30.11,NW,322,0.0,0.0,81,0.00,,,0.00,WUHU216DAVISWMX,2013-12-13 04:15:00,
2013-12-12 23:20:00,9.5,5.1,30.11,NW,322,0.0,0.0,82,0.00,,,0.00,WUHU216DAVISWMX,2013-12-13 04:20:00,
2013-12-12 23:25:00,9.5,5.1,30.10,NW,322,0.0,0.0,82,0.00,,,0.00,WUHU216DAVISWMX,2013-12-13 04:25:00,
2013-12-12 23:30:00,9.4,5.0,30.10,NW,322,0.0,0.0,82,0.00,,,0.00,WUHU216DAVISWMX,2013-12-13 04:30:00,
2013-12-12 23:35:00,9.4,5.3,30.10,NW,322,0.0,0.0,83,0.00,,,0.00,WUHU216DAVISWMX,2013-12-13 04:35:00,
2013-12-12 23:40:00,9.3,5.2,30.10,NW,322,0.0,0.0,83,0.00,,,0.00,WUHU216DAVISWMX,2013-12-13 04:40:00,
2013-12-12 23:45:00,9.0,4.6,30.10,NW,322,0.0,0.0,82,0.00,,,0.00,WUHU216DAVISWMX,2013-12-13 04:45:00,
2013-12-12 23:50:00,8.9,4.8,30.10,NW,322,0.0,0.0,83,0.00,,,0.00,WUHU216DAVISWMX,2013-12-13 04:50:00,
2013-12-12 23:55:00,8.8,4.7,30.09,NW,322,0.0,0.0,83,0.00,,,0.00,WUHU216DAVISWMX,2013-12-13 04:55:00,